Time;durP1;ratioP1;P1;durP2;ratioP2;P2;SDS_P1;SDS_P2;PMS_P1;PMS_P2;Temp;Humidity;BMP_temperature;BMP_pressure;BME280_temperature;BME280_humidity;BME280_pressure;Samples;Min_cycle;Max_cycle;Signal;HPM_P1;HPM_P2
2023/08/08 00:00:11;;;;;;;7.13;2.60;;;15.40;77.30;;;;;;9176453;19;20018;-71
2023/08/08 00:03:21;;;;;;;9.15;2.75;;;15.40;77.30;;;;;;9176549;19;20019;-70
2023/08/08 00:06:29;;;;;;;4.97;2.78;;;15.40;77.30;;;;;;9179556;19;20033;-70
2023/08/08 00:09:34;;;;;;;7.90;2.47;;;15.40;77.30;;;;;;9179233;19;20022;-71
2023/08/08 00:12:45;;;;;;;6.35;2.80;;;15.40;77.40;;;;;;9178668;19;20491;-72
2023/08/08 00:15:51;;;;;;;6.95;3.05;;;15.40;77.50;;;;;;9178418;19;20041;-72
2023/08/08 00:19:00;;;;;;;4.63;2.65;;;15.40;77.50;;;;;;9177425;19;20363;-71
2023/08/08 00:22:06;;;;;;;8.95;2.75;;;15.50;77.60;;;;;;9178330;19;20025;-70
2023/08/08 00:25:16;;;;;;;10.35;3.50;;;15.40;77.60;;;;;;9176183;19;20018;-70
2023/08/08 00:28:24;;;;;;;12.02;3.60;;;15.50;77.70;;;;;;9169734;19;20028;-71
2023/08/08 00:31:32;;;;;;;9.00;3.25;;;15.50;77.80;;;;;;9177751;19;20022;-71
2023/08/08 00:34:46;;;;;;;5.55;2.95;;;15.50;77.90;;;;;;9177945;19;20073;-71
2023/08/08 00:37:54;;;;;;;7.80;3.08;;;15.50;77.90;;;;;;9175401;19;20011;-71
2023/08/08 00:41:04;;;;;;;7.72;3.05;;;15.50;78.00;;;;;;9178108;19;20025;-71
2023/08/08 00:44:16;;;;;;;9.48;3.03;;;15.50;78.10;;;;;;9177261;19;20018;-71
2023/08/08 00:47:22;;;;;;;16.65;3.63;;;15.50;78.20;;;;;;9177588;19;20356;-69
2023/08/08 00:50:30;;;;;;;14.32;4.50;;;15.50;78.30;;;;;;9177442;19;20022;-71
2023/08/08 00:53:36;;;;;;;7.10;3.45;;;15.50;78.30;;;;;;9177531;19;20483;-70
2023/08/08 00:56:43;;;;;;;9.68;3.60;;;15.50;78.40;;;;;;9173130;19;20018;-70
2023/08/08 00:59:54;;;;;;;8.07;3.20;;;15.50;78.40;;;;;;9176334;19;20039;-71
2023/08/08 01:03:01;;;;;;;7.32;2.88;;;15.60;78.50;;;;;;9175621;19;20029;-70
2023/08/08 01:06:15;;;;;;;10.50;3.55;;;15.60;78.50;;;;;;9175486;19;20024;-72
2023/08/08 01:09:30;;;;;;;5.15;3.45;;;15.60;78.70;;;;;;9178167;19;20021;-70
2023/08/08 01:12:39;;;;;;;10.85;4.43;;;15.60;78.70;;;;;;9180345;19;20021;-71
2023/08/08 01:15:53;;;;;;;7.93;3.60;;;15.60;78.70;;;;;;9184363;19;20464;-71
2023/08/08 01:18:59;;;;;;;6.63;4.22;;;15.60;78.80;;;;;;9183143;19;20018;-72
2023/08/08 01:22:12;;;;;;;11.48;3.53;;;15.60;78.90;;;;;;9184196;19;20007;-70
2023/08/08 01:25:22;;;;;;;13.05;4.68;;;15.60;78.90;;;;;;9185336;19;20022;-70
2023/08/08 01:28:30;;;;;;;5.40;3.45;;;15.60;79.00;;;;;;9183844;19;20022;-71
2023/08/08 01:31:35;;;;;;;8.63;4.05;;;15.60;78.90;;;;;;9185554;19;20052;-71
2023/08/08 01:34:44;;;;;;;14.68;4.18;;;15.70;79.10;;;;;;9182368;19;20025;-70
2023/08/08 01:37:55;;;;;;;18.20;4.22;;;15.70;79.10;;;;;;9184901;19;20010;-70
2023/08/08 01:41:08;;;;;;;16.55;4.85;;;15.70;79.20;;;;;;9179877;19;20372;-70
2023/08/08 01:44:14;;;;;;;12.32;4.03;;;15.70;79.20;;;;;;9185034;19;20038;-71
2023/08/08 01:47:22;;;;;;;9.60;4.15;;;15.70;79.20;;;;;;9183686;19;20019;-69
2023/08/08 01:50:27;;;;;;;16.05;4.15;;;15.80;79.30;;;;;;9182555;19;20043;-71
2023/08/08 01:53:35;;;;;;;10.95;3.67;;;15.80;79.30;;;;;;9183973;19;20018;-71
2023/08/08 01:56:43;;;;;;;10.60;3.33;;;15.80;79.40;;;;;;9180341;19;20064;-71
2023/08/08 01:59:50;;;;;;;13.85;3.67;;;15.80;79.40;;;;;;9180798;19;20022;-71
2023/08/08 02:02:56;;;;;;;7.25;3.30;;;15.80;79.40;;;;;;9182629;19;20034;-70
2023/08/08 02:06:03;;;;;;;11.15;3.20;;;15.80;79.50;;;;;;9184394;19;20025;-69
2023/08/08 02:09:10;;;;;;;9.48;3.45;;;15.80;79.50;;;;;;9184306;19;20044;-70
2023/08/08 02:12:19;;;;;;;9.07;3.35;;;15.80;79.50;;;;;;9184020;19;20026;-70
2023/08/08 02:15:25;;;;;;;13.45;4.22;;;15.90;79.70;;;;;;9177398;19;20102;-70
2023/08/08 02:18:32;;;;;;;10.68;3.70;;;15.90;79.70;;;;;;9175969;19;20030;-70
2023/08/08 02:21:39;;;;;;;9.45;3.60;;;15.90;79.70;;;;;;9175381;19;20340;-70
2023/08/08 02:24:47;;;;;;;10.32;4.10;;;15.90;79.80;;;;;;9175134;19;20021;-72
2023/08/08 02:27:54;;;;;;;17.15;4.50;;;15.80;79.70;;;;;;9174596;19;20026;-72
2023/08/08 02:31:02;;;;;;;14.27;4.45;;;15.90;79.90;;;;;;9176557;19;20515;-71
2023/08/08 02:34:07;;;;;;;10.32;3.80;;;15.80;80.00;;;;;;9174925;19;20026;-72
2023/08/08 02:37:15;;;;;;;18.38;5.63;;;15.90;80.00;;;;;;9174026;19;20006;-71
2023/08/08 02:40:23;;;;;;;18.25;5.13;;;15.90;80.00;;;;;;9175053;19;20022;-72
2023/08/08 02:43:33;;;;;;;18.67;4.57;;;15.90;80.10;;;;;;9174840;19;20928;-72
2023/08/08 02:46:39;;;;;;;10.43;4.55;;;15.90;80.20;;;;;;9171503;19;20045;-71
2023/08/08 02:49:46;;;;;;;16.00;4.63;;;15.90;80.20;;;;;;9170981;19;20022;-70
2023/08/08 02:52:52;;;;;;;11.73;4.75;;;15.90;80.20;;;;;;9174643;19;20022;-71
2023/08/08 02:56:03;;;;;;;12.38;4.15;;;16.00;80.30;;;;;;9171548;19;20010;-70
2023/08/08 02:59:16;;;;;;;12.55;4.57;;;15.90;80.30;;;;;;9170360;19;20743;-70
2023/08/08 03:02:25;;;;;;;10.63;4.13;;;15.90;80.30;;;;;;9176314;19;20026;-72
2023/08/08 03:05:34;;;;;;;9.93;4.47;;;15.90;80.40;;;;;;9173059;19;20022;-73
2023/08/08 03:08:55;;;;;;;17.13;5.85;;;15.90;80.40;;;;;;9173538;19;20022;-70
2023/08/08 03:12:18;;;;;;;10.98;4.43;;;15.90;80.40;;;;;;9180691;19;20019;-70
2023/08/08 03:15:29;;;;;;;16.70;4.40;;;15.90;80.40;;;;;;9179950;19;20403;-72
2023/08/08 03:18:41;;;;;;;11.68;4.38;;;15.90;80.40;;;;;;9179112;19;20372;-72
2023/08/08 03:21:49;;;;;;;16.27;4.80;;;15.90;80.50;;;;;;9176804;19;20029;-70
2023/08/08 03:25:05;;;;;;;11.93;4.70;;;16.00;80.50;;;;;;9179163;19;20101;-70
2023/08/08 03:28:12;;;;;;;12.13;4.53;;;15.90;80.60;;;;;;9179039;19;20480;-72
2023/08/08 03:31:23;;;;;;;15.82;5.07;;;15.90;80.60;;;;;;9179178;19;20337;-72
2023/08/08 03:34:40;;;;;;;14.55;4.97;;;15.90;80.60;;;;;;9177091;19;20025;-71
2023/08/08 03:37:45;;;;;;;;;;;15.90;80.60;;;;;;9180301;19;20715;-72
2023/08/08 03:40:53;;;;;;;13.60;4.70;;;15.90;80.50;;;;;;9177010;19;19919;-71
2023/08/08 03:44:02;;;;;;;15.90;4.68;;;15.90;80.60;;;;;;9178455;19;20089;-70
2023/08/08 03:47:22;;;;;;;9.15;3.80;;;15.90;80.60;;;;;;9178250;19;20022;-70
2023/08/08 03:50:30;;;;;;;16.05;4.47;;;15.90;80.70;;;;;;9177567;19;20018;-72
2023/08/08 03:53:40;;;;;;;17.55;4.85;;;15.90;80.80;;;;;;9178207;19;20022;-70
2023/08/08 03:56:48;;;;;;;15.07;4.90;;;15.80;80.80;;;;;;9173582;19;20010;-71
2023/08/08 03:59:56;;;;;;;17.25;4.57;;;15.90;80.90;;;;;;9178790;19;20085;-71
2023/08/08 04:03:05;;;;;;;14.13;4.70;;;15.90;80.90;;;;;;9179417;19;20014;-72
2023/08/08 04:06:12;;;;;;;9.88;4.35;;;15.90;81.00;;;;;;9178547;19;20368;-71
2023/08/08 04:09:17;;;;;;;13.15;4.93;;;15.90;81.00;;;;;;9178578;19;20368;-69
2023/08/08 04:12:25;;;;;;;13.15;4.47;;;15.90;81.10;;;;;;9170472;19;20010;-72
2023/08/08 04:15:31;;;;;;;11.35;4.15;;;15.90;81.10;;;;;;9174026;19;20018;-70
2023/08/08 04:18:41;;;;;;;13.68;5.35;;;15.90;81.20;;;;;;9176652;19;20018;-71
2023/08/08 04:21:47;;;;;;;19.38;5.10;;;15.90;81.80;;;;;;9176704;19;20014;-71
2023/08/08 04:24:54;;;;;;;15.68;4.68;;;15.90;81.20;;;;;;9176875;19;20473;-70
2023/08/08 04:27:59;;;;;;;15.18;4.47;;;15.80;81.20;;;;;;9178481;19;20102;-70
2023/08/08 04:31:07;;;;;;;12.15;4.82;;;15.80;81.20;;;;;;9178995;19;20070;-70
2023/08/08 04:34:15;;;;;;;21.45;4.97;;;15.90;81.30;;;;;;9176383;19;20014;-70
2023/08/08 04:37:22;;;;;;;9.32;4.47;;;15.90;81.40;;;;;;9177843;19;20645;-70
2023/08/08 04:40:27;;;;;;;16.50;4.43;;;15.80;81.30;;;;;;9177873;19;20018;-70
2023/08/08 04:43:35;;;;;;;19.58;4.57;;;15.90;81.40;;;;;;9177491;19;20015;-71
2023/08/08 04:46:40;;;;;;;13.77;3.88;;;15.80;81.40;;;;;;9181660;19;20051;-70
2023/08/08 04:49:50;;;;;;;14.43;4.45;;;15.80;81.40;;;;;;9181360;19;20021;-70
2023/08/08 04:52:55;;;;;;;21.88;4.70;;;15.80;82.20;;;;;;9187285;19;20010;-71
2023/08/08 04:56:03;;;;;;;11.68;4.50;;;15.80;81.50;;;;;;9186739;19;20010;-72
2023/08/08 04:59:08;;;;;;;15.38;4.50;;;15.80;81.50;;;;;;9185524;19;20018;-70
2023/08/08 05:02:16;;;;;;;8.95;3.88;;;15.80;81.60;;;;;;9183561;19;20014;-70
2023/08/08 05:05:24;;;;;;;14.35;4.03;;;15.90;81.70;;;;;;9186903;19;20490;-69
2023/08/08 05:08:31;;;;;;;10.15;3.80;;;15.90;81.70;;;;;;9186345;19;20018;-69
2023/08/08 05:11:36;;;;;;;9.35;3.95;;;15.90;81.70;;;;;;9186097;19;20010;-70
2023/08/08 05:14:44;;;;;;;15.52;3.97;;;15.80;81.70;;;;;;9185842;19;20018;-70
2023/08/08 05:17:49;;;;;;;9.98;3.65;;;15.90;81.80;;;;;;9185757;19;20014;-71
2023/08/08 05:20:59;;;;;;;16.67;4.30;;;15.90;81.80;;;;;;9181489;19;20022;-71
2023/08/08 05:24:05;;;;;;;14.18;4.03;;;15.90;81.90;;;;;;9185989;19;20448;-71
2023/08/08 05:27:13;;;;;;;9.68;3.75;;;15.90;81.90;;;;;;9185283;19;20014;-71
2023/08/08 05:30:19;;;;;;;8.60;3.20;;;15.90;82.00;;;;;;9184081;19;20011;-70
2023/08/08 05:33:26;;;;;;;8.13;2.83;;;15.90;82.00;;;;;;9184691;19;20361;-71
2023/08/08 05:36:36;;;;;;;9.50;3.45;;;16.00;82.00;;;;;;9185187;19;20010;-70
2023/08/08 05:39:43;;;;;;;10.45;3.30;;;16.00;82.10;;;;;;9184972;19;20014;-71
2023/08/08 05:42:48;;;;;;;18.17;4.45;;;16.00;82.10;;;;;;9182204;19;20014;-70
2023/08/08 05:45:56;;;;;;;10.43;3.55;;;16.00;82.10;;;;;;9182663;19;20611;-71
2023/08/08 05:49:01;;;;;;;9.25;3.25;;;16.00;82.00;;;;;;9182037;19;20014;-70
2023/08/08 05:52:11;;;;;;;12.05;3.17;;;16.10;82.10;;;;;;9182892;19;20018;-70
2023/08/08 05:55:20;;;;;;;14.30;3.45;;;16.10;82.30;;;;;;9184507;19;20014;-70
2023/08/08 05:58:27;;;;;;;14.43;2.95;;;16.20;82.30;;;;;;9176835;19;20021;-70
2023/08/08 06:01:34;;;;;;;17.92;3.65;;;16.20;82.40;;;;;;9184383;19;20460;-70
2023/08/08 06:04:41;;;;;;;12.07;3.40;;;16.30;82.40;;;;;;9183872;19;20014;-71
2023/08/08 06:07:49;;;;;;;9.93;3.70;;;16.40;82.40;;;;;;9182048;19;20047;-70
2023/08/08 06:10:57;;;;;;;10.05;3.80;;;16.50;82.50;;;;;;9183633;19;20018;-70
2023/08/08 06:14:02;;;;;;;11.07;3.40;;;16.60;82.50;;;;;;9181524;19;20353;-71
2023/08/08 06:17:10;;;;;;;10.35;2.95;;;16.70;82.50;;;;;;9181779;19;20014;-70
2023/08/08 06:20:15;;;;;;;8.55;2.58;;;16.90;82.50;;;;;;9182661;19;20015;-71
2023/08/08 06:23:25;;;;;;;9.10;2.63;;;17.00;82.40;;;;;;9179748;19;20025;-70
2023/08/08 06:26:30;;;;;;;14.07;3.58;;;17.10;82.30;;;;;;9180680;19;20025;-71
2023/08/08 06:29:38;;;;;;;13.88;3.28;;;17.30;82.30;;;;;;9173061;19;20508;-70
2023/08/08 06:32:43;;;;;;;4.57;2.40;;;17.50;82.20;;;;;;9182134;19;20022;-68
2023/08/08 06:35:51;;;;;;;11.35;2.67;;;17.60;82.00;;;;;;9182073;19;20028;-70
2023/08/08 06:38:58;;;;;;;7.75;2.30;;;17.80;81.90;;;;;;9182511;19;20777;-69
2023/08/08 06:42:09;;;;;;;11.23;1.90;;;17.90;81.60;;;;;;9180967;19;20033;-69
2023/08/08 06:45:27;;;;;;;6.03;2.20;;;18.10;81.50;;;;;;9181084;19;20018;-70
2023/08/08 06:48:34;;;;;;;6.80;2.08;;;18.20;81.30;;;;;;9177439;19;20029;-70
2023/08/08 06:51:40;;;;;;;8.27;2.10;;;18.40;81.10;;;;;;9177608;19;20018;-70
2023/08/08 06:54:50;;;;;;;7.72;2.10;;;18.50;81.50;;;;;;9177516;19;20492;-71
2023/08/08 06:57:55;;;;;;;7.55;2.30;;;18.70;80.70;;;;;;9173535;19;20808;-70
2023/08/08 07:01:02;;;;;;;6.82;2.05;;;18.80;80.60;;;;;;9178515;19;20018;-72
2023/08/08 07:04:08;;;;;;;7.25;2.22;;;19.00;80.40;;;;;;9176482;19;20400;-70
2023/08/08 07:07:16;;;;;;;13.02;2.13;;;19.10;80.20;;;;;;9176476;19;20025;-69
2023/08/08 07:10:30;;;;;;;7.22;1.80;;;19.20;79.90;;;;;;9163063;19;20022;-71
2023/08/08 07:13:40;;;;;;;13.57;2.40;;;19.30;79.50;;;;;;9163974;19;20015;-70
2023/08/08 07:16:45;;;;;;;4.22;1.20;;;19.40;79.40;;;;;;9164497;19;20037;-70
2023/08/08 07:19:53;;;;;;;6.55;2.25;;;19.40;79.10;;;;;;9165894;19;20021;-70
2023/08/08 07:23:00;;;;;;;8.88;1.80;;;19.50;78.90;;;;;;9163860;19;20093;-69
2023/08/08 07:26:10;;;;;;;7.07;1.83;;;19.50;78.70;;;;;;9166522;19;20029;-70
2023/08/08 07:29:16;;;;;;;7.35;1.83;;;19.50;78.50;;;;;;9166796;19;20140;-69
2023/08/08 07:32:23;;;;;;;10.80;1.60;;;19.60;78.50;;;;;;9166989;19;20263;-70
2023/08/08 07:35:29;;;;;;;8.68;1.50;;;19.70;78.50;;;;;;9167359;19;20014;-71
2023/08/08 07:38:37;;;;;;;6.25;1.52;;;19.70;78.30;;;;;;9164759;19;20018;-73
2023/08/08 07:41:45;;;;;;;4.80;1.30;;;19.80;78.20;;;;;;9168872;19;20543;-71
2023/08/08 07:44:53;;;;;;;3.65;1.20;;;20.00;78.10;;;;;;9165664;19;20014;-71
2023/08/08 07:47:58;;;;;;;8.30;1.67;;;20.10;77.80;;;;;;9163316;19;20018;-72
2023/08/08 07:51:06;;;;;;;5.57;1.25;;;20.20;77.50;;;;;;9166495;19;20388;-71
2023/08/08 07:54:12;;;;;;;6.05;1.45;;;20.20;77.30;;;;;;9165387;19;20088;-71
2023/08/08 07:57:22;;;;;;;3.60;1.45;;;20.30;77.00;;;;;;9160479;19;20017;-70
2023/08/08 08:00:28;;;;;;;7.72;1.98;;;20.40;76.80;;;;;;9164896;19;20022;-73
2023/08/08 08:03:36;;;;;;;6.70;1.70;;;20.50;76.80;;;;;;9163237;19;20010;-71
2023/08/08 08:06:42;;;;;;;7.53;1.30;;;20.60;76.50;;;;;;9164294;19;20116;-72
2023/08/08 08:09:51;;;;;;;7.93;1.60;;;20.70;76.40;;;;;;9166575;19;20014;-71
2023/08/08 08:13:00;;;;;;;7.60;1.33;;;20.80;76.20;;;;;;9166140;19;20758;-72
2023/08/08 08:16:07;;;;;;;3.55;1.23;;;20.90;75.90;;;;;;9163368;19;20026;-70
2023/08/08 08:19:13;;;;;;;4.07;0.95;;;21.00;75.70;;;;;;9163835;19;20018;-71
2023/08/08 08:22:20;;;;;;;2.47;1.10;;;21.10;75.50;;;;;;9164179;19;20345;-70
2023/08/08 08:25:26;;;;;;;3.83;1.13;;;21.20;75.30;;;;;;9167068;19;20078;-71
2023/08/08 08:28:37;;;;;;;6.03;1.10;;;21.30;75.10;;;;;;9165008;19;20007;-72
2023/08/08 08:31:45;;;;;;;3.30;0.90;;;21.50;74.60;;;;;;9164226;19;20097;-71
2023/08/08 08:34:52;;;;;;;3.67;0.98;;;21.60;74.50;;;;;;9163968;19;20011;-69
2023/08/08 08:37:58;;;;;;;3.50;0.95;;;21.70;74.10;;;;;;9166699;19;20577;-71
2023/08/08 08:41:06;;;;;;;4.15;1.00;;;21.80;73.90;;;;;;9162845;19;20011;-70
2023/08/08 08:44:14;;;;;;;2.78;1.25;;;21.90;73.70;;;;;;9163140;19;20118;-71
2023/08/08 08:47:23;;;;;;;6.53;1.73;;;22.10;73.30;;;;;;9161948;19;20029;-70
2023/08/08 08:50:30;;;;;;;6.78;1.20;;;22.20;73.20;;;;;;9165101;19;20022;-71
2023/08/08 08:53:39;;;;;;;5.05;1.35;;;22.20;72.90;;;;;;9161107;19;20464;-73
2023/08/08 08:56:45;;;;;;;4.15;1.13;;;22.40;72.80;;;;;;9164145;19;20029;-72
2023/08/08 09:00:03;;;;;;;5.78;0.98;;;22.50;72.50;;;;;;9164944;19;20372;-71
2023/08/08 09:03:12;;;;;;;3.17;1.02;;;22.50;72.00;;;;;;9163587;19;20490;-72
2023/08/08 09:06:20;;;;;;;4.10;1.40;;;22.60;72.00;;;;;;9162092;19;20025;-72
2023/08/08 09:09:26;;;;;;;2.42;0.80;;;22.70;71.80;;;;;;9161748;19;20014;-71
2023/08/08 09:12:34;;;;;;;5.13;1.33;;;22.70;71.50;;;;;;9164312;19;20503;-70
2023/08/08 09:15:42;;;;;;;4.18;1.00;;;22.70;71.30;;;;;;9163108;19;20795;-69
2023/08/08 09:18:50;;;;;;;3.30;0.90;;;22.80;71.00;;;;;;9162067;19;20010;-69
2023/08/08 09:21:56;;;;;;;2.63;0.80;;;22.70;71.10;;;;;;9160872;19;20030;-68
2023/08/08 09:25:05;;;;;;;5.82;0.98;;;22.70;70.80;;;;;;9156510;19;20015;-69
2023/08/08 09:28:10;;;;;;;2.95;0.90;;;22.70;70.70;;;;;;9161983;19;20022;-68
2023/08/08 09:31:24;;;;;;;4.75;0.90;;;22.60;70.60;;;;;;9160424;19;20372;-71
2023/08/08 09:34:33;;;;;;;4.15;0.90;;;22.60;70.40;;;;;;9163457;19;20022;-69
2023/08/08 09:37:41;;;;;;;4.60;0.80;;;22.50;70.30;;;;;;9175488;19;20025;-72
2023/08/08 09:40:50;;;;;;;6.95;0.90;;;22.50;70.40;;;;;;9173827;19;20107;-76
2023/08/08 09:43:57;;;;;;;7.95;1.02;;;22.40;70.30;;;;;;9173132;19;20015;-69
2023/08/08 09:47:05;;;;;;;3.28;0.75;;;22.40;70.20;;;;;;9174715;19;20033;-68
2023/08/08 09:50:13;;;;;;;1.25;0.75;;;22.40;70.10;;;;;;9176097;19;20740;-69
2023/08/08 09:53:20;;;;;;;1.58;0.80;;;22.40;70.10;;;;;;9170338;19;20031;-71
2023/08/08 09:56:30;;;;;;;2.92;0.95;;;22.30;70.00;;;;;;9164009;19;20845;-70
2023/08/08 09:59:38;;;;;;;3.83;0.70;;;22.30;69.90;;;;;;9176374;19;20017;-71
2023/08/08 10:02:49;;;;;;;2.25;0.98;;;22.30;69.60;;;;;;9171865;19;20026;-70
2023/08/08 10:05:54;;;;;;;4.40;1.17;;;22.20;69.60;;;;;;9173560;19;20032;-71
2023/08/08 10:09:04;;;;;;;5.53;1.10;;;22.10;70.00;;;;;;9168644;19;20014;-70
2023/08/08 10:12:10;;;;;;;5.97;1.23;;;22.00;70.10;;;;;;9168193;19;20074;-71
2023/08/08 10:15:21;;;;;;;4.82;0.85;;;21.90;70.30;;;;;;9171163;19;20055;-69
2023/08/08 10:18:30;;;;;;;4.80;0.90;;;21.70;70.60;;;;;;9169316;19;20052;-71
2023/08/08 10:21:39;;;;;;;5.72;1.10;;;21.60;71.00;;;;;;9173175;19;20018;-70
2023/08/08 10:24:51;;;;;;;4.30;0.80;;;21.50;71.40;;;;;;9175632;19;20022;-71
2023/08/08 10:28:06;;;;;;;5.43;1.10;;;21.40;71.60;;;;;;9173711;19;20767;-71
2023/08/08 10:31:30;;;;;;;3.58;1.10;;;21.40;72.10;;;;;;9169191;19;20125;-70
2023/08/08 10:34:44;;;;;;;1.80;1.00;;;21.30;72.30;;;;;;9168472;19;20015;-71
2023/08/08 10:37:56;;;;;;;3.10;0.75;;;21.40;72.40;;;;;;9169624;19;20049;-72
2023/08/08 10:41:05;;;;;;;7.32;1.10;;;21.50;72.60;;;;;;9169751;19;20010;-71
2023/08/08 10:44:11;;;;;;;3.88;1.08;;;21.50;72.60;;;;;;9168776;19;20025;-72
2023/08/08 10:47:23;;;;;;;2.88;1.02;;;21.60;72.50;;;;;;9167390;19;20011;-71
2023/08/08 10:50:33;;;;;;;2.72;1.10;;;21.80;72.40;;;;;;9169694;19;20021;-71
2023/08/08 10:53:40;;;;;;;2.35;0.80;;;21.90;72.10;;;;;;9168271;19;20014;-69
2023/08/08 10:56:51;;;;;;;4.05;0.82;;;21.90;71.80;;;;;;9162867;19;20058;-70
2023/08/08 11:00:22;;;;;;;13.17;0.90;;;22.00;71.40;;;;;;9167237;19;20014;-70
2023/08/08 11:03:28;;;;;;;7.05;1.00;;;22.00;71.00;;;;;;9169609;19;20014;-69
2023/08/08 11:06:36;;;;;;;2.97;0.77;;;22.00;71.20;;;;;;9168543;19;20018;-71
2023/08/08 11:09:42;;;;;;;1.25;0.70;;;22.00;71.30;;;;;;9168041;19;20026;-72
2023/08/08 11:12:57;;;;;;;1.70;0.68;;;21.90;71.20;;;;;;9167830;19;20025;-71
2023/08/08 11:16:06;;;;;;;2.45;0.73;;;21.90;71.10;;;;;;9165441;19;20349;-70
2023/08/08 11:19:14;;;;;;;4.72;0.82;;;21.80;71.20;;;;;;9168487;19;20475;-70
2023/08/08 11:22:24;;;;;;;4.07;0.85;;;21.70;71.20;;;;;;9168966;19;20026;-70
2023/08/08 11:25:32;;;;;;;2.47;0.85;;;21.60;71.10;;;;;;9167363;19;20026;-69
2023/08/08 11:28:38;;;;;;;1.65;0.60;;;21.50;71.20;;;;;;9164047;19;20586;-70
2023/08/08 11:31:48;;;;;;;1.45;1.25;;;21.50;71.20;;;;;;9166970;19;20014;-71
2023/08/08 11:34:53;;;;;;;2.22;0.80;;;21.40;71.20;;;;;;9165055;19;20018;-70
2023/08/08 11:38:01;;;;;;;3.55;0.88;;;21.30;71.20;;;;;;9168510;19;20014;-70
2023/08/08 11:41:07;;;;;;;3.20;0.90;;;21.20;71.20;;;;;;9166167;19;20015;-71
2023/08/08 11:44:14;;;;;;;1.83;0.75;;;21.20;71.20;;;;;;9165224;19;20014;-70
2023/08/08 11:47:28;;;;;;;4.03;1.02;;;21.20;71.40;;;;;;9168582;19;20022;-70
2023/08/08 11:50:35;;;;;;;2.70;0.93;;;21.30;71.20;;;;;;9173322;19;20349;-70
2023/08/08 11:53:51;;;;;;;2.92;0.80;;;21.30;71.30;;;;;;9170348;19;20022;-70
2023/08/08 11:56:59;;;;;;;3.45;0.68;;;21.30;71.20;;;;;;9155456;19;20019;-70
2023/08/08 12:00:07;;;;;;;4.10;0.70;;;21.50;71.30;;;;;;9167154;19;20107;-71
2023/08/08 12:03:22;;;;;;;2.13;0.82;;;21.70;71.10;;;;;;9165937;19;20025;-71
2023/08/08 12:06:31;;;;;;;3.00;0.90;;;21.80;71.20;;;;;;9171254;19;20021;-70
2023/08/08 12:09:40;;;;;;;3.05;0.82;;;21.90;70.60;;;;;;9167328;19;20041;-73
2023/08/08 12:12:45;;;;;;;1.70;0.80;;;22.10;70.40;;;;;;9165396;19;20025;-72
2023/08/08 12:15:53;;;;;;;1.73;0.70;;;22.20;70.20;;;;;;9166266;19;20022;-72
2023/08/08 12:19:04;;;;;;;2.13;0.68;;;22.30;69.80;;;;;;9173141;19;20134;-72
2023/08/08 12:22:11;;;;;;;4.68;0.82;;;22.30;69.20;;;;;;9169907;19;20809;-72
2023/08/08 12:25:19;;;;;;;1.90;0.65;;;22.30;69.10;;;;;;9170704;19;20014;-72
2023/08/08 12:28:26;;;;;;;2.17;0.63;;;22.30;68.90;;;;;;9172550;19;20017;-71
2023/08/08 12:31:31;;;;;;;4.63;0.77;;;22.30;68.70;;;;;;9172023;19;20452;-72
2023/08/08 12:34:41;;;;;;;4.82;0.85;;;22.30;68.60;;;;;;9169013;19;20021;-71
2023/08/08 12:37:47;;;;;;;2.95;0.63;;;22.20;68.40;;;;;;9171689;19;20374;-72
2023/08/08 12:40:54;;;;;;;1.58;0.85;;;22.20;68.60;;;;;;9170496;19;20348;-72
2023/08/08 12:43:59;;;;;;;3.22;0.65;;;22.30;68.60;;;;;;9169144;19;20014;-72
2023/08/08 12:47:07;;;;;;;1.25;0.68;;;22.30;68.50;;;;;;9169858;19;20019;-72
2023/08/08 12:50:15;;;;;;;1.58;0.70;;;22.30;68.20;;;;;;9169009;19;20022;-72
2023/08/08 12:53:23;;;;;;;3.03;1.00;;;22.30;68.00;;;;;;9170245;19;20372;-72
2023/08/08 12:56:28;;;;;;;3.08;0.75;;;22.40;68.00;;;;;;9165005;19;20010;-72
2023/08/08 12:59:36;;;;;;;3.28;1.13;;;22.40;67.80;;;;;;9168857;19;20029;-72
2023/08/08 13:02:42;;;;;;;4.63;0.93;;;22.40;67.60;;;;;;9171003;19;20021;-71
2023/08/08 13:05:52;;;;;;;7.80;0.60;;;22.40;67.60;;;;;;9170615;19;20022;-71
2023/08/08 13:08:57;;;;;;;1.48;0.60;;;22.40;67.30;;;;;;9178374;19;20022;-71
2023/08/08 13:12:05;;;;;;;2.67;0.85;;;22.40;67.30;;;;;;9179568;19;20014;-71
2023/08/08 13:15:13;;;;;;;2.42;0.93;;;22.40;67.30;;;;;;9180179;19;20021;-71
2023/08/08 13:18:20;;;;;;;2.95;1.02;;;22.40;67.10;;;;;;9179588;19;20018;-71
2023/08/08 13:21:28;;;;;;;2.72;0.82;;;22.40;67.10;;;;;;9176934;19;20395;-71
2023/08/08 13:24:35;;;;;;;3.85;0.82;;;22.40;66.90;;;;;;9179369;19;20011;-71
2023/08/08 13:27:42;;;;;;;3.22;0.60;;;22.40;66.90;;;;;;9179298;19;20051;-71
2023/08/08 13:30:49;;;;;;;2.97;0.77;;;22.40;66.80;;;;;;9179895;19;20014;-71
2023/08/08 13:33:55;;;;;;;2.25;0.70;;;22.40;66.80;;;;;;9176635;19;20394;-71
2023/08/08 13:37:05;;;;;;;1.60;0.70;;;22.40;66.80;;;;;;9177453;19;20022;-72
2023/08/08 13:40:11;;;;;;;1.67;0.90;;;22.40;66.60;;;;;;9178624;19;20019;-72
2023/08/08 13:43:19;;;;;;;3.53;0.95;;;22.50;66.70;;;;;;9178983;19;20018;-72
2023/08/08 13:46:24;;;;;;;1.35;0.70;;;22.50;66.60;;;;;;9176529;19;20728;-71
2023/08/08 13:49:31;;;;;;;2.00;1.02;;;22.50;66.40;;;;;;9175926;19;20684;-70
2023/08/08 13:52:39;;;;;;;1.75;0.80;;;22.50;66.20;;;;;;9176875;19;20034;-71
2023/08/08 13:55:46;;;;;;;1.30;0.73;;;22.60;66.00;;;;;;9175894;19;20019;-71
2023/08/08 13:58:52;;;;;;;2.03;0.63;;;22.60;65.90;;;;;;9166919;19;20497;-70
2023/08/08 14:01:59;;;;;;;1.50;0.85;;;22.50;65.70;;;;;;9171257;19;20014;-71
2023/08/08 14:05:06;;;;;;;2.22;0.98;;;22.50;65.80;;;;;;9178786;19;20023;-71
2023/08/08 14:08:16;;;;;;;2.13;0.80;;;22.40;65.70;;;;;;9170348;19;20010;-71
2023/08/08 14:11:21;;;;;;;2.33;0.98;;;22.30;65.70;;;;;;9171516;19;20812;-71
2023/08/08 14:14:28;;;;;;;6.05;1.00;;;22.30;65.80;;;;;;9171218;19;20729;-71
2023/08/08 14:17:34;;;;;;;2.75;0.70;;;22.20;65.80;;;;;;9165236;19;20345;-71
2023/08/08 14:20:41;;;;;;;3.25;1.20;;;22.10;65.80;;;;;;9167498;19;21017;-71
2023/08/08 14:23:49;;;;;;;6.35;1.05;;;22.00;65.80;;;;;;9170507;19;20520;-71
2023/08/08 14:26:56;;;;;;;2.53;1.00;;;22.00;65.70;;;;;;9168797;19;20023;-71
2023/08/08 14:30:02;;;;;;;8.30;1.35;;;21.90;65.90;;;;;;9170622;19;20022;-72
2023/08/08 14:33:09;;;;;;;4.15;0.90;;;21.90;66.00;;;;;;9170234;19;20021;-71
2023/08/08 14:36:15;;;;;;;2.72;0.80;;;21.90;66.10;;;;;;9167909;19;20034;-71
2023/08/08 14:39:25;;;;;;;1.85;0.85;;;21.90;66.00;;;;;;9170586;19;20081;-71
2023/08/08 14:42:31;;;;;;;5.32;0.80;;;21.80;65.80;;;;;;9165322;19;20472;-71
2023/08/08 14:45:38;;;;;;;2.25;0.85;;;21.80;65.80;;;;;;9172532;19;20025;-71
2023/08/08 14:48:44;;;;;;;3.15;0.90;;;21.70;65.80;;;;;;9166644;19;20018;-71
2023/08/08 14:51:51;;;;;;;6.22;0.90;;;21.70;65.80;;;;;;9167658;19;20103;-71
2023/08/08 14:54:59;;;;;;;2.92;1.05;;;21.70;65.90;;;;;;9168829;19;20018;-71
2023/08/08 14:58:07;;;;;;;3.05;1.02;;;21.60;65.80;;;;;;9162865;19;20798;-71
2023/08/08 15:01:12;;;;;;;3.08;0.80;;;21.60;66.10;;;;;;9171197;19;20018;-71
2023/08/08 15:04:20;;;;;;;2.67;1.10;;;21.60;66.20;;;;;;9168285;19;20601;-71
2023/08/08 15:07:26;;;;;;;2.80;1.00;;;21.50;66.20;;;;;;9170102;19;20026;-71
2023/08/08 15:10:36;;;;;;;8.55;1.08;;;21.50;66.20;;;;;;9168843;19;20490;-72
2023/08/08 15:13:41;;;;;;;4.72;0.70;;;21.50;66.10;;;;;;9171311;19;20022;-71
2023/08/08 15:16:51;;;;;;;5.00;1.20;;;21.40;66.20;;;;;;9167806;19;20010;-71
2023/08/08 15:19:57;;;;;;;4.68;0.90;;;21.40;66.10;;;;;;9168190;19;20516;-71
2023/08/08 15:23:04;;;;;;;9.80;1.17;;;21.40;66.20;;;;;;9166575;19;20010;-71
2023/08/08 15:26:12;;;;;;;6.32;1.25;;;21.40;66.20;;;;;;9168715;19;20514;-71
2023/08/08 15:29:19;;;;;;;3.17;0.80;;;21.30;66.80;;;;;;9165853;19;20476;-71
2023/08/08 15:32:25;;;;;;;4.07;0.93;;;21.30;66.20;;;;;;9164857;19;20026;-71
2023/08/08 15:35:32;;;;;;;2.17;0.88;;;21.30;66.30;;;;;;9165928;19;20014;-71
2023/08/08 15:38:38;;;;;;;5.78;0.85;;;21.30;66.20;;;;;;9165599;19;20440;-71
2023/08/08 15:41:48;;;;;;;3.33;1.00;;;21.20;66.00;;;;;;9167443;19;20019;-70
2023/08/08 15:44:53;;;;;;;2.65;0.82;;;21.20;66.00;;;;;;9165099;19;20019;-71
2023/08/08 15:48:00;;;;;;;2.08;0.73;;;21.20;66.10;;;;;;9164809;19;20025;-71
2023/08/08 15:51:06;;;;;;;1.05;0.70;;;21.10;66.00;;;;;;9166388;19;20447;-72
2023/08/08 15:54:14;;;;;;;2.38;0.60;;;21.10;66.10;;;;;;9164507;19;20018;-71
2023/08/08 15:57:22;;;;;;;5.35;0.80;;;21.10;66.10;;;;;;9159710;19;20022;-70
2023/08/08 16:00:29;;;;;;;6.32;1.75;;;21.10;66.10;;;;;;9162719;19;20021;-72
2023/08/08 16:03:37;;;;;;;2.42;1.05;;;21.00;66.10;;;;;;9166109;19;20070;-71
2023/08/08 16:06:44;;;;;;;3.72;1.48;;;20.90;66.10;;;;;;9166710;19;20015;-70
2023/08/08 16:09:50;;;;;;;3.13;1.00;;;20.90;66.40;;;;;;9164666;19;20021;-70
2023/08/08 16:13:00;;;;;;;5.85;0.88;;;20.90;66.40;;;;;;9166093;19;20013;-70